createdAt,value
2024-01-17T00:00:31.285Z,967.12
2024-01-17T00:01:31.158Z,967.10
2024-01-17T00:02:31.094Z,967.12
2024-01-17T00:03:30.986Z,967.05
2024-01-17T00:04:30.896Z,967.02
2024-01-17T00:05:30.838Z,966.95
2024-01-17T00:06:30.744Z,966.96
2024-01-17T00:07:30.682Z,966.92
2024-01-17T00:08:30.557Z,966.92
2024-01-17T00:09:30.435Z,966.89
2024-01-17T00:10:30.347Z,966.88
2024-01-17T00:11:30.409Z,966.84
2024-01-17T00:12:30.159Z,966.83
2024-01-17T00:13:30.081Z,966.80
2024-01-17T00:14:30.001Z,966.79
2024-01-17T00:15:29.897Z,966.77
2024-01-17T00:16:29.821Z,966.75
2024-01-17T00:17:29.814Z,966.82
2024-01-17T00:18:29.679Z,966.86
2024-01-17T00:19:29.541Z,966.88
2024-01-17T00:20:29.461Z,966.94
2024-01-17T00:21:29.360Z,966.87
2024-01-17T00:22:29.263Z,966.87
2024-01-17T00:23:29.223Z,966.89
2024-01-17T00:24:29.074Z,966.88
2024-01-17T00:25:29.000Z,966.88
2024-01-17T00:26:28.931Z,966.87
2024-01-17T00:27:28.926Z,966.88
2024-01-17T00:28:28.722Z,966.90
2024-01-17T00:29:28.659Z,966.89
2024-01-17T00:30:28.548Z,966.87
2024-01-17T00:31:28.494Z,966.88
2024-01-17T00:32:28.685Z,966.90
2024-01-17T00:33:28.427Z,966.91
2024-01-17T00:34:28.269Z,966.87
2024-01-17T00:35:28.115Z,966.87
2024-01-17T00:36:28.003Z,966.86
2024-01-17T00:37:27.913Z,966.82
2024-01-17T00:38:27.857Z,966.79
2024-01-17T00:39:27.719Z,966.80
2024-01-17T00:40:27.628Z,966.77
2024-01-17T00:41:27.536Z,966.76
2024-01-17T00:42:27.458Z,966.76
2024-01-17T00:43:27.359Z,966.71
2024-01-17T00:44:27.289Z,966.80
2024-01-17T00:45:27.186Z,966.75
2024-01-17T00:46:27.086Z,966.77
2024-01-17T00:47:27.030Z,966.77
2024-01-17T00:48:27.066Z,966.84
2024-01-17T00:49:26.844Z,966.83
2024-01-17T00:50:26.738Z,966.80
2024-01-17T00:51:26.636Z,966.79
2024-01-17T00:52:26.574Z,966.82
2024-01-17T00:53:26.474Z,966.79
2024-01-17T00:54:26.358Z,966.78
2024-01-17T00:55:26.267Z,966.73
2024-01-17T00:56:26.205Z,966.69
2024-01-17T00:57:26.089Z,966.68
2024-01-17T00:58:25.991Z,966.66
2024-01-17T00:59:26.018Z,966.68
2024-01-17T01:00:25.819Z,966.62
2024-01-17T01:01:25.719Z,966.58
2024-01-17T01:02:25.671Z,966.50
2024-01-17T01:03:25.617Z,966.43
2024-01-17T01:04:25.459Z,966.39
2024-01-17T01:05:25.367Z,966.38
2024-01-17T01:06:25.274Z,966.35
2024-01-17T01:07:25.180Z,966.37
2024-01-17T01:08:25.143Z,966.30
2024-01-17T01:09:25.035Z,966.34
2024-01-17T01:10:24.910Z,966.31
2024-01-17T01:11:24.862Z,966.35
2024-01-17T01:12:24.736Z,966.36
2024-01-17T01:13:24.648Z,966.39
2024-01-17T01:14:24.570Z,966.39
2024-01-17T01:15:24.577Z,966.41
2024-01-17T01:16:24.360Z,966.38
2024-01-17T01:17:24.370Z,966.37
2024-01-17T01:18:24.330Z,966.34
2024-01-17T01:19:24.122Z,966.26
2024-01-17T01:20:24.050Z,966.24
2024-01-17T01:21:23.917Z,966.24
2024-01-17T01:22:23.820Z,966.25
2024-01-17T01:23:23.759Z,966.24
2024-01-17T01:24:23.636Z,966.25
2024-01-17T01:25:23.554Z,966.24
2024-01-17T01:26:23.517Z,966.23
2024-01-17T01:27:23.376Z,966.24
2024-01-17T01:28:23.310Z,966.26
2024-01-17T01:29:23.219Z,966.29
2024-01-17T01:30:23.139Z,966.33
2024-01-17T01:31:23.100Z,966.35
2024-01-17T01:32:22.955Z,966.35
2024-01-17T01:33:22.914Z,966.30
2024-01-17T01:34:22.763Z,966.32
2024-01-17T01:35:22.825Z,966.35
2024-01-17T01:36:22.545Z,966.35
2024-01-17T01:37:22.457Z,966.38
2024-01-17T01:38:22.362Z,966.40
2024-01-17T01:39:22.276Z,966.41
2024-01-17T01:40:22.194Z,966.43
2024-01-17T01:41:22.091Z,966.45
2024-01-17T01:42:22.002Z,966.44
2024-01-17T01:43:21.915Z,966.41
2024-01-17T01:44:21.823Z,966.40
2024-01-17T01:45:21.728Z,966.42
2024-01-17T01:46:21.645Z,966.42
2024-01-17T01:47:21.670Z,966.37
2024-01-17T01:48:21.597Z,966.34
2024-01-17T01:49:21.541Z,966.29
2024-01-17T01:50:21.269Z,966.30
2024-01-17T01:51:21.188Z,966.24
2024-01-17T01:52:21.087Z,966.25
2024-01-17T01:53:20.996Z,966.25
2024-01-17T01:54:20.960Z,966.28
2024-01-17T01:55:20.817Z,966.32
2024-01-17T01:56:20.731Z,966.31
2024-01-17T01:57:20.631Z,966.29
2024-01-17T01:58:20.544Z,966.27
2024-01-17T01:59:20.453Z,966.28
2024-01-17T02:00:20.372Z,966.24
2024-01-17T02:01:20.274Z,966.26
2024-01-17T02:02:20.179Z,966.29
2024-01-17T02:03:20.241Z,966.28
2024-01-17T02:04:20.024Z,966.27
2024-01-17T02:05:20.102Z,966.26
2024-01-17T02:06:19.839Z,966.27
2024-01-17T02:07:19.740Z,966.22
2024-01-17T02:08:19.635Z,966.26
2024-01-17T02:09:19.544Z,966.19
2024-01-17T02:10:19.452Z,966.23
2024-01-17T02:11:19.373Z,966.22
2024-01-17T02:12:19.270Z,966.19
2024-01-17T02:13:19.181Z,966.16
2024-01-17T02:14:19.097Z,966.15
2024-01-17T02:15:18.996Z,966.13
2024-01-17T02:16:18.937Z,966.07
2024-01-17T02:17:18.815Z,966.12
2024-01-17T02:18:18.793Z,966.03
2024-01-17T02:19:18.829Z,966.05
2024-01-17T02:20:18.542Z,966.00
2024-01-17T02:21:18.456Z,966.00
2024-01-17T02:22:18.357Z,965.97
2024-01-17T02:23:18.267Z,965.97
2024-01-17T02:24:18.173Z,965.91
2024-01-17T02:25:18.090Z,965.88
2024-01-17T02:26:17.992Z,965.89
2024-01-17T02:27:17.909Z,965.89
2024-01-17T02:28:17.818Z,965.92
2024-01-17T02:29:17.741Z,965.90
2024-01-17T02:30:17.723Z,965.87
2024-01-17T02:31:17.685Z,965.88
2024-01-17T02:32:17.461Z,965.85
2024-01-17T02:33:17.498Z,965.91
2024-01-17T02:34:17.434Z,965.88
2024-01-17T02:35:17.282Z,965.86
2024-01-17T02:36:17.170Z,965.86
2024-01-17T02:37:17.013Z,965.83
2024-01-17T02:38:16.903Z,965.80
2024-01-17T02:39:16.806Z,965.82
2024-01-17T02:40:16.742Z,965.77
2024-01-17T02:41:16.627Z,965.75
2024-01-17T02:42:16.679Z,965.70
2024-01-17T02:43:16.447Z,965.73
2024-01-17T02:44:16.354Z,965.73
2024-01-17T02:45:16.272Z,965.71
2024-01-17T02:46:16.176Z,965.72
2024-01-17T02:47:16.091Z,965.73
2024-01-17T02:48:16.078Z,965.76
2024-01-17T02:49:16.011Z,965.78
2024-01-17T02:50:15.807Z,965.75
2024-01-17T02:51:15.851Z,965.75
2024-01-17T02:52:15.641Z,965.73
2024-01-17T02:53:15.557Z,965.75
2024-01-17T02:54:15.444Z,965.75
2024-01-17T02:55:15.359Z,965.71
2024-01-17T02:56:15.268Z,965.67
2024-01-17T02:57:15.184Z,965.66
2024-01-17T02:58:15.088Z,965.68
2024-01-17T02:59:15.006Z,965.67
2024-01-17T03:00:14.992Z,965.62
2024-01-17T03:01:14.865Z,965.57
2024-01-17T03:02:14.731Z,965.56
2024-01-17T03:03:14.705Z,965.54
2024-01-17T03:04:14.558Z,965.56
2024-01-17T03:05:14.542Z,965.53
2024-01-17T03:06:14.459Z,965.61
2024-01-17T03:07:14.474Z,965.58
2024-01-17T03:08:14.176Z,965.59
2024-01-17T03:09:14.144Z,965.61
2024-01-17T03:10:13.989Z,965.57
2024-01-17T03:11:13.913Z,965.54
2024-01-17T03:12:13.909Z,965.49
2024-01-17T03:13:13.735Z,965.43
2024-01-17T03:14:13.629Z,965.41
2024-01-17T03:15:13.632Z,965.39
2024-01-17T03:16:13.453Z,965.34
2024-01-17T03:17:13.355Z,965.28
2024-01-17T03:18:13.390Z,965.21
2024-01-17T03:19:13.285Z,965.20
2024-01-17T03:20:13.096Z,965.19
2024-01-17T03:21:13.040Z,965.13
2024-01-17T03:22:12.925Z,965.09
2024-01-17T03:23:12.933Z,965.09
2024-01-17T03:24:12.772Z,965.15
2024-01-17T03:25:12.635Z,965.11
2024-01-17T03:26:12.554Z,965.12
2024-01-17T03:27:12.475Z,965.09
2024-01-17T03:28:12.370Z,965.08
2024-01-17T03:29:12.276Z,965.04
2024-01-17T03:30:12.270Z,965.03
2024-01-17T03:31:12.173Z,965.04
2024-01-17T03:32:12.013Z,965.00
2024-01-17T03:33:12.169Z,964.94
2024-01-17T03:34:11.922Z,964.93
2024-01-17T03:35:11.756Z,964.87
2024-01-17T03:36:11.687Z,964.90
2024-01-17T03:37:11.578Z,964.89
2024-01-17T03:38:11.461Z,964.88
2024-01-17T03:39:11.465Z,964.88
2024-01-17T03:40:11.298Z,964.89
2024-01-17T03:41:11.188Z,964.89
2024-01-17T03:42:11.119Z,964.85
2024-01-17T03:43:11.050Z,964.79
2024-01-17T03:44:10.936Z,964.82
2024-01-17T03:45:11.060Z,964.76
2024-01-17T03:46:10.758Z,964.80
2024-01-17T03:47:10.649Z,964.73
2024-01-17T03:48:10.622Z,964.69
2024-01-17T03:49:10.572Z,964.66
2024-01-17T03:50:10.388Z,964.61
2024-01-17T03:51:10.419Z,964.53
2024-01-17T03:52:10.220Z,964.47
2024-01-17T03:53:10.113Z,964.43
2024-01-17T03:54:10.050Z,964.44
2024-01-17T03:55:09.936Z,964.44
2024-01-17T03:56:09.837Z,964.41
2024-01-17T03:57:09.901Z,964.41
2024-01-17T03:58:09.658Z,964.38
2024-01-17T03:59:09.580Z,964.42
2024-01-17T04:00:09.520Z,964.40
2024-01-17T04:01:09.454Z,964.33
2024-01-17T04:02:09.312Z,964.37
2024-01-17T04:03:09.271Z,964.39
2024-01-17T04:04:09.118Z,964.37
2024-01-17T04:05:09.067Z,964.39
2024-01-17T04:06:09.010Z,964.37
2024-01-17T04:07:08.890Z,964.40
2024-01-17T04:08:08.773Z,964.38
2024-01-17T04:09:08.774Z,964.40
2024-01-17T04:10:08.595Z,964.38
2024-01-17T04:11:08.490Z,964.34
2024-01-17T04:12:08.462Z,964.36
2024-01-17T04:13:08.294Z,964.28
2024-01-17T04:14:08.204Z,964.28
2024-01-17T04:15:08.252Z,964.27
2024-01-17T04:16:08.029Z,964.28
2024-01-17T04:17:07.936Z,964.25
2024-01-17T04:18:07.939Z,964.27
2024-01-17T04:19:07.853Z,964.22
2024-01-17T04:20:07.683Z,964.23
2024-01-17T04:21:07.706Z,964.16
2024-01-17T04:22:07.483Z,964.15
2024-01-17T04:23:07.882Z,964.13
2024-01-17T04:24:07.374Z,964.16
2024-01-17T04:25:07.206Z,964.14
2024-01-17T04:26:07.129Z,964.12
2024-01-17T04:27:07.352Z,964.11
2024-01-17T04:28:06.942Z,964.10
2024-01-17T04:29:06.839Z,964.15
2024-01-17T04:30:06.941Z,964.12
2024-01-17T04:31:06.714Z,964.16
2024-01-17T04:32:06.572Z,964.12
2024-01-17T04:33:06.581Z,964.14
2024-01-17T04:34:06.640Z,964.16
2024-01-17T04:35:06.311Z,964.08
2024-01-17T04:36:06.220Z,963.99
2024-01-17T04:37:06.100Z,964.02
2024-01-17T04:38:06.017Z,964.00
2024-01-17T04:39:06.104Z,963.95
2024-01-17T04:40:05.841Z,963.87
2024-01-17T04:41:05.763Z,963.84
2024-01-17T04:42:05.687Z,963.83
2024-01-17T04:43:05.552Z,963.90
2024-01-17T04:44:05.466Z,963.95
2024-01-17T04:45:05.450Z,963.81
2024-01-17T04:46:05.281Z,963.82
2024-01-17T04:47:05.189Z,963.81
2024-01-17T04:48:05.172Z,963.81
2024-01-17T04:49:05.183Z,963.77
2024-01-17T04:50:05.139Z,963.68
2024-01-17T04:51:04.836Z,963.67
2024-01-17T04:52:04.746Z,963.67
2024-01-17T04:53:04.652Z,963.68
2024-01-17T04:54:04.720Z,963.65
2024-01-17T04:55:04.475Z,963.70
2024-01-17T04:56:04.370Z,963.67
2024-01-17T04:57:04.281Z,963.70
2024-01-17T04:58:04.189Z,963.67
2024-01-17T04:59:04.202Z,963.64
2024-01-17T05:00:04.066Z,963.64
2024-01-17T05:01:03.952Z,963.61
2024-01-17T05:02:03.833Z,963.57
2024-01-17T05:03:03.908Z,963.52
2024-01-17T05:04:03.648Z,963.52
2024-01-17T05:05:03.717Z,963.52
2024-01-17T05:06:03.857Z,963.48
2024-01-17T05:07:03.378Z,963.46
2024-01-17T05:08:03.292Z,963.36
2024-01-17T05:09:03.263Z,963.34
2024-01-17T05:10:03.110Z,963.40
2024-01-17T05:11:03.023Z,963.40
2024-01-17T05:12:02.964Z,963.37
2024-01-17T05:13:02.844Z,963.32
2024-01-17T05:14:02.764Z,963.33
2024-01-17T05:15:02.869Z,963.35
2024-01-17T05:16:02.593Z,963.33
2024-01-17T05:17:02.562Z,963.29
2024-01-17T05:18:02.491Z,963.30
2024-01-17T05:19:02.445Z,963.28
2024-01-17T05:20:02.348Z,963.29
2024-01-17T05:21:02.150Z,963.20
2024-01-17T05:22:02.024Z,963.13
2024-01-17T05:23:01.939Z,963.17
2024-01-17T05:24:01.927Z,963.14
2024-01-17T05:25:01.751Z,963.12
2024-01-17T05:26:01.655Z,963.07
2024-01-17T05:27:01.643Z,963.04
2024-01-17T05:28:01.505Z,962.99
2024-01-17T05:29:01.390Z,962.99
2024-01-17T05:30:01.363Z,963.03
2024-01-17T05:31:01.409Z,963.00
2024-01-17T05:32:01.125Z,963.05
2024-01-17T05:33:01.190Z,963.11
2024-01-17T05:34:01.102Z,963.12
2024-01-17T05:35:00.854Z,963.12
2024-01-17T05:36:00.905Z,963.11
2024-01-17T05:37:00.662Z,963.08
2024-01-17T05:38:00.651Z,963.05
2024-01-17T05:39:00.551Z,963.00
2024-01-17T05:40:00.422Z,963.01
2024-01-17T05:41:00.303Z,963.04
2024-01-17T05:42:00.282Z,963.06
2024-01-17T05:43:00.122Z,963.06
2024-01-17T05:44:00.036Z,963.05
2024-01-17T05:45:00.036Z,963.04
2024-01-17T05:45:59.885Z,963.00
2024-01-17T05:46:59.860Z,963.00
2024-01-17T05:47:59.791Z,963.01
2024-01-17T05:48:59.711Z,963.05
2024-01-17T05:49:59.486Z,963.04
2024-01-17T05:50:59.504Z,963.01
2024-01-17T05:51:59.302Z,963.01
2024-01-17T05:52:59.255Z,963.07
2024-01-17T05:53:59.160Z,963.04
2024-01-17T05:54:59.036Z,963.05
2024-01-17T05:56:00.519Z,963.04
2024-01-17T05:56:58.923Z,963.04
2024-01-17T05:57:58.767Z,963.03
2024-01-17T05:58:58.669Z,963.06
2024-01-17T05:59:58.633Z,963.06
2024-01-17T06:00:58.521Z,963.00
2024-01-17T06:01:58.400Z,962.99
2024-01-17T06:02:58.357Z,962.99
2024-01-17T06:03:58.283Z,963.01
2024-01-17T06:04:58.133Z,963.00
2024-01-17T06:05:58.091Z,962.98
2024-01-17T06:06:58.066Z,962.96
2024-01-17T06:07:57.859Z,962.97
2024-01-17T06:08:57.798Z,962.97
2024-01-17T06:09:57.674Z,962.94
2024-01-17T06:10:57.589Z,962.92
2024-01-17T06:11:57.517Z,962.92
2024-01-17T06:12:57.414Z,962.91
2024-01-17T06:13:57.324Z,962.92
2024-01-17T06:14:57.261Z,962.93
2024-01-17T06:15:57.134Z,962.92
2024-01-17T06:16:57.039Z,962.89
2024-01-17T06:17:57.053Z,962.92
2024-01-17T06:18:57.011Z,962.85
2024-01-17T06:19:56.824Z,962.80
2024-01-17T06:20:56.700Z,962.76
2024-01-17T06:21:56.589Z,962.76
2024-01-17T06:22:56.508Z,962.76
2024-01-17T06:23:56.448Z,962.70
2024-01-17T06:24:56.323Z,962.72
2024-01-17T06:25:56.229Z,962.65
2024-01-17T06:26:59.184Z,962.64
2024-01-17T06:27:56.055Z,962.61
2024-01-17T06:28:55.963Z,962.55
2024-01-17T06:29:55.936Z,962.50
2024-01-17T06:30:55.842Z,962.45
2024-01-17T06:31:55.709Z,962.42
2024-01-17T06:32:55.689Z,962.43
2024-01-17T06:33:55.532Z,962.44
2024-01-17T06:34:55.499Z,962.40
2024-01-17T06:35:55.354Z,962.42
2024-01-17T06:36:55.235Z,962.42
2024-01-17T06:37:55.147Z,962.41
2024-01-17T06:38:55.129Z,962.47
2024-01-17T06:39:54.964Z,962.40
2024-01-17T06:40:54.880Z,962.38
2024-01-17T06:41:54.853Z,962.35
2024-01-17T06:42:54.695Z,962.40
2024-01-17T06:43:54.606Z,962.33
2024-01-17T06:44:54.545Z,962.36
2024-01-17T06:45:54.420Z,962.33
2024-01-17T06:46:54.329Z,962.32
2024-01-17T06:47:54.363Z,962.29
2024-01-17T06:48:54.255Z,962.26
2024-01-17T06:49:54.068Z,962.19
2024-01-17T06:50:54.046Z,962.15
2024-01-17T06:51:53.880Z,962.20
2024-01-17T06:52:53.793Z,962.19
2024-01-17T06:53:53.698Z,962.15
2024-01-17T06:54:53.605Z,962.22
2024-01-17T06:55:53.516Z,962.18
2024-01-17T06:56:53.489Z,962.16
2024-01-17T06:57:53.338Z,962.16
2024-01-17T06:58:53.249Z,962.19
2024-01-17T06:59:53.222Z,962.20
2024-01-17T07:00:53.084Z,962.19
2024-01-17T07:01:52.971Z,962.15
2024-01-17T07:02:52.903Z,962.16
2024-01-17T07:03:52.857Z,962.17
2024-01-17T07:04:52.719Z,962.15
2024-01-17T07:05:52.667Z,962.18
2024-01-17T07:06:52.656Z,962.12
2024-01-17T07:07:52.454Z,962.13
2024-01-17T07:08:52.468Z,962.13
2024-01-17T07:09:52.249Z,962.15
2024-01-17T07:10:52.160Z,962.12
2024-01-17T07:11:52.090Z,962.12
2024-01-17T07:12:51.983Z,962.19
2024-01-17T07:13:51.889Z,962.06
2024-01-17T07:14:51.839Z,962.08
2024-01-17T07:15:51.704Z,962.06
2024-01-17T07:16:51.641Z,962.05
2024-01-17T07:17:51.671Z,962.01
2024-01-17T07:18:51.592Z,961.99
2024-01-17T07:19:51.352Z,961.93
2024-01-17T07:20:55.178Z,961.91
2024-01-17T07:21:51.174Z,961.87
2024-01-17T07:22:51.089Z,961.86
2024-01-17T07:23:51.017Z,961.83
2024-01-17T07:24:50.907Z,961.81
2024-01-17T07:25:50.811Z,961.78
2024-01-17T07:26:50.736Z,961.72
2024-01-17T07:27:50.634Z,961.77
2024-01-17T07:28:50.540Z,961.76
2024-01-17T07:29:50.500Z,961.69
2024-01-17T07:30:50.356Z,961.66
2024-01-17T07:31:50.263Z,961.66
2024-01-17T07:32:50.500Z,961.58
2024-01-17T07:33:50.244Z,961.60
2024-01-17T07:34:50.213Z,961.54
2024-01-17T07:35:50.047Z,961.54
2024-01-17T07:36:49.811Z,961.53
2024-01-17T07:37:49.730Z,961.52
2024-01-17T07:38:49.739Z,961.46
2024-01-17T07:39:49.535Z,961.47
2024-01-17T07:40:49.448Z,961.46
2024-01-17T07:41:49.438Z,961.42
2024-01-17T07:42:49.262Z,961.38
2024-01-17T07:43:49.171Z,961.31
2024-01-17T07:44:49.098Z,961.32
2024-01-17T07:45:49.001Z,961.27
2024-01-17T07:46:48.963Z,961.28
2024-01-17T07:47:48.877Z,961.30
2024-01-17T07:48:48.846Z,961.24
2024-01-17T07:49:48.673Z,961.19
2024-01-17T07:50:48.687Z,961.22
2024-01-17T07:51:48.454Z,961.19
2024-01-17T07:52:48.360Z,961.21
2024-01-17T07:53:48.315Z,961.18
2024-01-17T07:54:48.190Z,961.12
2024-01-17T07:55:48.089Z,961.09
2024-01-17T07:56:48.024Z,961.08
2024-01-17T07:57:47.909Z,961.08
2024-01-17T07:58:47.818Z,961.01
2024-01-17T07:59:47.789Z,961.00
2024-01-17T08:00:47.698Z,961.02
2024-01-17T08:01:47.545Z,960.98
2024-01-17T08:02:47.534Z,960.98
2024-01-17T08:03:47.430Z,960.94
2024-01-17T08:04:47.279Z,960.95
2024-01-17T08:05:47.240Z,960.91
2024-01-17T08:06:47.134Z,960.88
2024-01-17T08:07:47.016Z,960.87
2024-01-17T08:08:46.967Z,960.87
2024-01-17T08:09:46.829Z,960.84
2024-01-17T08:10:46.738Z,960.83
2024-01-17T08:11:46.693Z,960.87
2024-01-17T08:12:46.563Z,960.84
2024-01-17T08:13:46.473Z,960.84
2024-01-17T08:14:46.390Z,960.81
2024-01-17T08:15:46.300Z,960.82
2024-01-17T08:16:46.199Z,960.75
2024-01-17T08:17:46.202Z,960.78
2024-01-17T08:18:46.141Z,960.71
2024-01-17T08:19:46.018Z,960.74
2024-01-17T08:20:45.936Z,960.71
2024-01-17T08:21:45.753Z,960.64
2024-01-17T08:22:45.662Z,960.65
2024-01-17T08:23:45.607Z,960.63
2024-01-17T08:24:45.479Z,960.63
2024-01-17T08:25:45.394Z,960.60
2024-01-17T08:26:45.335Z,960.59
2024-01-17T08:27:45.210Z,960.57
2024-01-17T08:28:47.152Z,960.52
2024-01-17T08:29:45.078Z,960.50
2024-01-17T08:30:44.943Z,960.50
2024-01-17T08:31:44.851Z,960.50
2024-01-17T08:32:44.942Z,960.50
2024-01-17T08:33:44.816Z,960.50
2024-01-17T08:34:44.593Z,960.48
2024-01-17T08:35:44.557Z,960.52
2024-01-17T08:36:44.403Z,960.46
2024-01-17T08:37:44.317Z,960.47
2024-01-17T08:38:44.276Z,960.47
2024-01-17T08:39:44.134Z,960.44
2024-01-17T08:40:44.040Z,960.44
2024-01-17T08:41:43.992Z,960.43
2024-01-17T08:42:43.873Z,960.42
2024-01-17T08:43:43.785Z,960.38
2024-01-17T08:44:43.691Z,960.37
2024-01-17T08:45:43.590Z,960.31
2024-01-17T08:46:46.075Z,960.30
2024-01-17T08:47:43.621Z,960.24
2024-01-17T08:48:43.496Z,960.25
2024-01-17T08:49:43.410Z,960.23
2024-01-17T08:50:43.159Z,960.27
2024-01-17T08:51:43.049Z,960.23
2024-01-17T08:52:42.971Z,960.21
2024-01-17T08:53:42.943Z,960.20
2024-01-17T08:54:42.783Z,960.19
2024-01-17T08:55:46.161Z,960.17
2024-01-17T08:56:42.627Z,960.22
2024-01-17T08:57:42.514Z,960.18
2024-01-17T08:58:42.422Z,960.17
2024-01-17T08:59:42.388Z,960.11
2024-01-17T09:00:42.269Z,960.09
2024-01-17T09:01:42.148Z,960.06
2024-01-17T09:02:42.096Z,960.07
2024-01-17T09:03:41.993Z,960.06
2024-01-17T09:04:41.897Z,960.05
2024-01-17T09:05:41.864Z,960.08
2024-01-17T09:06:41.876Z,960.05
2024-01-17T09:07:41.659Z,960.04
2024-01-17T09:08:41.669Z,959.99
2024-01-17T09:09:41.432Z,960.09
2024-01-17T09:10:41.341Z,960.06
2024-01-17T09:11:41.379Z,960.00
2024-01-17T09:12:41.175Z,960.01
2024-01-17T09:13:41.099Z,960.03
2024-01-17T09:14:41.012Z,960.02
2024-01-17T09:15:40.904Z,960.04
2024-01-17T09:16:40.799Z,960.08
2024-01-17T09:17:40.802Z,960.02
2024-01-17T09:18:40.727Z,960.05
2024-01-17T09:19:40.567Z,960.02
2024-01-17T09:20:40.481Z,960.04
2024-01-17T09:21:40.351Z,960.00
2024-01-17T09:22:40.271Z,960.00
2024-01-17T09:23:40.313Z,959.90
2024-01-17T09:24:40.085Z,959.91
2024-01-17T09:25:40.005Z,959.84
2024-01-17T09:26:39.933Z,959.75
2024-01-17T09:27:39.820Z,959.79
2024-01-17T09:28:39.747Z,959.85
2024-01-17T09:29:39.759Z,959.87
2024-01-17T09:30:39.564Z,959.89
2024-01-17T09:31:39.464Z,959.86
2024-01-17T09:32:39.593Z,959.88
2024-01-17T09:33:39.351Z,959.92
2024-01-17T09:34:39.309Z,959.96
2024-01-17T09:35:50.352Z,959.97
2024-01-17T09:36:39.038Z,959.90
2024-01-17T09:37:38.944Z,959.90
2024-01-17T09:38:38.893Z,959.88
2024-01-17T09:39:38.752Z,959.83
2024-01-17T09:40:38.673Z,959.73
2024-01-17T09:41:38.628Z,959.75
2024-01-17T09:42:38.480Z,959.73
2024-01-17T09:43:38.404Z,959.75
2024-01-17T09:44:38.310Z,959.74
2024-01-17T09:45:38.217Z,959.73
2024-01-17T09:46:38.183Z,959.67
2024-01-17T09:47:38.079Z,959.67
2024-01-17T09:48:38.602Z,959.63
2024-01-17T09:49:37.879Z,959.58
2024-01-17T09:50:37.777Z,959.61
2024-01-17T09:51:37.697Z,959.58
2024-01-17T09:52:37.591Z,959.59
2024-01-17T09:53:37.537Z,959.58
2024-01-17T09:54:37.409Z,959.56
2024-01-17T09:55:37.330Z,959.60
2024-01-17T09:56:37.275Z,959.55
2024-01-17T09:57:37.146Z,959.51
2024-01-17T09:58:37.057Z,959.49
2024-01-17T09:59:36.966Z,959.48
2024-01-17T10:00:36.874Z,959.44
2024-01-17T10:01:36.792Z,959.47
2024-01-17T10:02:36.733Z,959.47
2024-01-17T10:03:36.801Z,959.43
2024-01-17T10:04:36.519Z,959.42
2024-01-17T10:05:37.522Z,959.41
2024-01-17T10:06:36.378Z,959.37
2024-01-17T10:07:36.249Z,959.35
2024-01-17T10:08:36.206Z,959.36
2024-01-17T10:09:36.089Z,959.28
2024-01-17T10:10:35.978Z,959.33
2024-01-17T10:11:35.909Z,959.35
2024-01-17T10:12:35.866Z,959.26
2024-01-17T10:13:35.719Z,959.21
2024-01-17T10:14:35.678Z,959.22
2024-01-17T10:15:35.532Z,959.14
2024-01-17T10:16:35.442Z,959.17
2024-01-17T10:17:35.417Z,959.13
2024-01-17T10:18:35.445Z,959.12
2024-01-17T10:19:35.277Z,959.07
2024-01-17T10:20:35.112Z,959.03
2024-01-17T10:21:34.997Z,959.05
2024-01-17T10:22:34.918Z,959.01
2024-01-17T10:23:34.835Z,959.00
2024-01-17T10:24:34.731Z,959.00
2024-01-17T10:25:34.637Z,958.94
2024-01-17T10:26:34.593Z,958.92
2024-01-17T10:27:34.459Z,958.92
2024-01-17T10:28:34.382Z,958.96
2024-01-17T10:29:36.966Z,958.98
2024-01-17T10:30:34.324Z,958.94
2024-01-17T10:31:34.115Z,958.87
2024-01-17T10:32:34.163Z,958.86
2024-01-17T10:33:34.093Z,958.81
2024-01-17T10:34:33.946Z,958.81
2024-01-17T10:35:33.764Z,958.77
2024-01-17T10:36:33.655Z,958.79
2024-01-17T10:37:33.573Z,958.78
2024-01-17T10:38:33.535Z,958.78
2024-01-17T10:39:33.397Z,958.73
2024-01-17T10:40:33.308Z,958.71
2024-01-17T10:41:33.298Z,958.70
2024-01-17T10:42:33.128Z,958.64
2024-01-17T10:43:33.024Z,958.63
2024-01-17T10:44:32.967Z,958.58
2024-01-17T10:45:32.855Z,958.58
2024-01-17T10:46:32.757Z,958.53
2024-01-17T10:47:32.728Z,958.45
2024-01-17T10:48:32.717Z,958.42
2024-01-17T10:49:32.537Z,958.41
2024-01-17T10:50:32.428Z,958.38
2024-01-17T10:51:32.331Z,958.30
2024-01-17T10:52:32.228Z,958.34
2024-01-17T10:53:38.114Z,958.35
2024-01-17T10:54:32.196Z,958.35
2024-01-17T10:55:31.953Z,958.31
2024-01-17T10:56:32.000Z,958.34
2024-01-17T10:57:31.771Z,958.35
2024-01-17T10:58:31.690Z,958.31
2024-01-17T10:59:31.638Z,958.26
2024-01-17T11:00:31.647Z,958.31
2024-01-17T11:01:31.413Z,958.27
2024-01-17T11:02:31.350Z,958.24
2024-01-17T11:03:31.436Z,958.17
2024-01-17T11:04:31.227Z,958.11
2024-01-17T11:05:31.219Z,958.10
2024-01-17T11:06:31.002Z,958.08
2024-01-17T11:07:30.906Z,958.13
2024-01-17T11:08:30.793Z,958.09
2024-01-17T11:09:30.730Z,958.05
2024-01-17T11:10:30.620Z,957.98
2024-01-17T11:11:30.531Z,957.93
2024-01-17T11:12:30.438Z,957.93
2024-01-17T11:13:30.345Z,957.89
2024-01-17T11:14:30.270Z,957.85
2024-01-17T11:15:30.212Z,957.87
2024-01-17T11:16:30.078Z,957.83
2024-01-17T11:17:35.935Z,957.84
2024-01-17T11:18:30.045Z,957.79
2024-01-17T11:19:29.977Z,957.81
2024-01-17T11:20:31.712Z,957.71
2024-01-17T11:21:29.647Z,957.68
2024-01-17T11:22:29.560Z,957.66
2024-01-17T11:23:29.452Z,957.60
2024-01-17T11:24:29.362Z,957.58
2024-01-17T11:25:29.273Z,957.60
2024-01-17T11:26:29.185Z,957.55
2024-01-17T11:27:29.110Z,957.52
2024-01-17T11:28:29.030Z,957.49
2024-01-17T11:29:28.923Z,957.46
2024-01-17T11:30:28.827Z,957.38
2024-01-17T11:31:28.748Z,957.40
2024-01-17T11:32:28.732Z,957.37
2024-01-17T11:33:28.752Z,957.37
2024-01-17T11:34:28.599Z,957.34
2024-01-17T11:35:28.391Z,957.32
2024-01-17T11:36:28.310Z,957.31
2024-01-17T11:37:28.209Z,957.31
2024-01-17T11:38:28.124Z,957.21
2024-01-17T11:39:28.144Z,957.18
2024-01-17T11:40:27.941Z,957.11
2024-01-17T11:41:27.857Z,957.07
2024-01-17T11:42:27.785Z,957.06
2024-01-17T11:43:27.683Z,957.01
2024-01-17T11:44:27.595Z,956.97
2024-01-17T11:45:27.535Z,956.92
2024-01-17T11:46:27.410Z,956.91
2024-01-17T11:47:27.348Z,956.84
2024-01-17T11:48:27.346Z,956.75
2024-01-17T11:49:27.192Z,956.70
2024-01-17T11:50:27.053Z,956.66
2024-01-17T11:51:27.051Z,956.52
2024-01-17T11:52:26.878Z,956.54
2024-01-17T11:53:26.798Z,956.52
2024-01-17T11:54:26.708Z,956.47
2024-01-17T11:55:26.606Z,956.42
2024-01-17T11:56:26.525Z,956.39
2024-01-17T11:57:26.431Z,956.29
2024-01-17T11:58:26.350Z,956.27
2024-01-17T11:59:26.247Z,956.24
2024-01-17T12:00:26.197Z,956.27
2024-01-17T12:01:26.073Z,956.20
2024-01-17T12:02:25.984Z,956.18
2024-01-17T12:03:25.965Z,956.11
2024-01-17T12:04:25.802Z,956.08
2024-01-17T12:05:25.726Z,956.06
2024-01-17T12:06:25.950Z,956.07
2024-01-17T12:07:25.615Z,956.06
2024-01-17T12:08:25.455Z,956.07
2024-01-17T12:09:28.075Z,955.94
2024-01-17T12:10:25.390Z,955.90
2024-01-17T12:11:25.195Z,955.90
2024-01-17T12:12:25.141Z,955.91
2024-01-17T12:13:25.019Z,955.95
2024-01-17T12:14:24.916Z,955.96
2024-01-17T12:15:24.888Z,955.87
2024-01-17T12:16:26.328Z,955.77
2024-01-17T12:17:24.658Z,955.74
2024-01-17T12:18:24.670Z,955.65
2024-01-17T12:19:24.613Z,955.59
2024-01-17T12:20:24.375Z,955.56
2024-01-17T12:21:24.918Z,955.63
2024-01-17T12:22:24.200Z,955.58
2024-01-17T12:23:24.114Z,955.55
2024-01-17T12:24:35.006Z,955.60
2024-01-17T12:25:23.943Z,955.52
2024-01-17T12:26:23.850Z,955.50
2024-01-17T12:27:23.809Z,955.52